Ocean Exporter — VRXJ4 — position and weather

sailwx.info

Track history (hours):
 
Tides and Currents Weather Stations Pressure Air Temp Water Temp Dewpoint Dewpoint Depression Visibility Wind Speed Wind Dir Waves Ship Positions

Ocean Exporter

Last reported at 2016-Aug-30 22:33 UTC. Time now 2016-Aug-30 22:39 UTC.
Position S 33°14' E 040°55'.

Length 169 m; draft 9.6 m.

Type: Cargo ship. MMSI: 477980000.

Date/timePositionNaut miles runAvg speedWind from/ knotsBaromVisibWave heightAir tempDewpointWater temp
2016-Aug-30 22:33S 33°14' E 040°55'1111.2
2016-Aug-30 21:34S 33°16' E 040°42'1111.0
2016-Aug-30 20:33S 33°18' E 040°29'1211.0
2016-Aug-30 19:28S 33°21' E 040°15'1011.1
2016-Aug-30 18:34S 33°23' E 040°04'1111.2
2016-Aug-30 17:34S 33°25' E 039°50'1211.6
2016-Aug-30 16:30S 33°28' E 039°36'1111.6
2016-Aug-30 15:33S 33°30' E 039°23'1310.9
2016-Aug-30 14:24S 33°33' E 039°08'1011.6
2016-Aug-30 13:34S 33°36' E 038°57'1211.7
2016-Aug-30 12:33S 33°39' E 038°44'1111.3
2016-Aug-30 11:34S 33°41' E 038°30'1211.4
2016-Aug-30 10:31S 33°43' E 038°16'1111.6
2016-Aug-30 09:34S 33°45' E 038°03'1111.0
2016-Aug-30 08:33S 33°48' E 037°50'1110.8
2016-Aug-30 07:34S 33°51' E 037°38'1311.2
2016-Aug-30 06:24S 33°54' E 037°23'1011.4
2016-Aug-30 05:33S 33°56' E 037°11'1311.2
2016-Aug-30 04:24S 33°59' E 036°56'911.1
2016-Aug-30 03:33S 34°01' E 036°45'1111.0
2016-Aug-30 02:33S 34°03' E 036°32'1111.0
2016-Aug-30 01:33S 34°05' E 036°19'1111.0
2016-Aug-30 00:33S 34°07' E 036°06'1111.4
2016-Aug-29 23:33S 34°09' E 035°52'1211.5
2016-Aug-29 22:32S 34°10' E 035°38'1211.4
2016-Aug-29 21:31S 34°12' E 035°24'1111.2
2016-Aug-29 20:33S 34°15' E 035°12'4310.9
2016-Aug-29 16:34S 34°25' E 034°21'1110.7
2016-Aug-29 15:32S 34°29' E 034°08'1110.8
2016-Aug-29 14:33S 34°32' E 033°56'1211.0
2016-Aug-29 13:26S 34°36' E 033°42'1011.4
2016-Aug-29 12:34S 34°36' E 033°29'1211.5
2016-Aug-29 11:33S 34°37' E 033°15'1111.2
2016-Aug-29 10:33S 34°37' E 033°02'2211.0
2016-Aug-29 08:33S 34°38' E 032°35'1110.8
2016-Aug-29 07:33S 34°38' E 032°22'1110.5
2016-Aug-29 06:33S 34°38' E 032°09'7110.2
2016-Aug-28 23:33S 34°37' E 030°42'1010.5
2016-Aug-28 22:33S 34°37' E 030°30'1010.1
2016-Aug-28 21:33S 34°37' E 030°17'12 9.9
2016-Aug-28 20:18S 34°38' E 030°02'17 9.6
2016-Aug-28 18:30S 34°39' E 029°42'9 9.5
2016-Aug-28 17:34S 34°40' E 029°31'10 9.4
2016-Aug-28 16:33S 34°40' E 029°19'  
Track history (hours):
 
Tides and Currents Weather Stations Pressure Air Temp Water Temp Dewpoint Dewpoint Depression Visibility Wind Speed Wind Dir Waves Ship Positions

Ocean Exporter

Last reported at 2016-Aug-30 22:33 UTC. Time now 2016-Aug-30 22:39 UTC.
Position S 33°14' E 040°55'.

Length 169 m; draft 9.6 m.

Type: Cargo ship. MMSI: 477980000.

Date/timePositionNaut miles runAvg speedWind from/ knotsBaromVisibWave heightAir tempDewpointWater temp
2016-Aug-30 22:33S 33°14' E 040°55'1111.2
2016-Aug-30 21:34S 33°16' E 040°42'1111.0
2016-Aug-30 20:33S 33°18' E 040°29'1211.0
2016-Aug-30 19:28S 33°21' E 040°15'1011.1
2016-Aug-30 18:34S 33°23' E 040°04'1111.2
2016-Aug-30 17:34S 33°25' E 039°50'1211.6
2016-Aug-30 16:30S 33°28' E 039°36'1111.6
2016-Aug-30 15:33S 33°30' E 039°23'1310.9
2016-Aug-30 14:24S 33°33' E 039°08'1011.6
2016-Aug-30 13:34S 33°36' E 038°57'1211.7
2016-Aug-30 12:33S 33°39' E 038°44'1111.3
2016-Aug-30 11:34S 33°41' E 038°30'1211.4
2016-Aug-30 10:31S 33°43' E 038°16'1111.6
2016-Aug-30 09:34S 33°45' E 038°03'1111.0
2016-Aug-30 08:33S 33°48' E 037°50'1110.8
2016-Aug-30 07:34S 33°51' E 037°38'1311.2
2016-Aug-30 06:24S 33°54' E 037°23'1011.4
2016-Aug-30 05:33S 33°56' E 037°11'1311.2
2016-Aug-30 04:24S 33°59' E 036°56'911.1
2016-Aug-30 03:33S 34°01' E 036°45'1111.0
2016-Aug-30 02:33S 34°03' E 036°32'1111.0
2016-Aug-30 01:33S 34°05' E 036°19'1111.0
2016-Aug-30 00:33S 34°07' E 036°06'1111.4
2016-Aug-29 23:33S 34°09' E 035°52'1211.5
2016-Aug-29 22:32S 34°10' E 035°38'1211.4
2016-Aug-29 21:31S 34°12' E 035°24'1111.2
2016-Aug-29 20:33S 34°15' E 035°12'4310.9
2016-Aug-29 16:34S 34°25' E 034°21'1110.7
2016-Aug-29 15:32S 34°29' E 034°08'1110.8
2016-Aug-29 14:33S 34°32' E 033°56'1211.0
2016-Aug-29 13:26S 34°36' E 033°42'1011.4
2016-Aug-29 12:34S 34°36' E 033°29'1211.5
2016-Aug-29 11:33S 34°37' E 033°15'1111.2
2016-Aug-29 10:33S 34°37' E 033°02'2211.0
2016-Aug-29 08:33S 34°38' E 032°35'1110.8
2016-Aug-29 07:33S 34°38' E 032°22'1110.5
2016-Aug-29 06:33S 34°38' E 032°09'7110.2
2016-Aug-28 23:33S 34°37' E 030°42'1010.5
2016-Aug-28 22:33S 34°37' E 030°30'1010.1
2016-Aug-28 21:33S 34°37' E 030°17'12 9.9
2016-Aug-28 20:18S 34°38' E 030°02'17 9.6
2016-Aug-28 18:30S 34°39' E 029°42'9 9.5
2016-Aug-28 17:34S 34°40' E 029°31'10 9.4
2016-Aug-28 16:33S 34°40' E 029°19'  

Dump ship's entire track history